Portglenone, United Kingdom
Current Conditions -  °F | °C
As of 4:20 PM on Friday 31 Oct 2014 (Local Time) from EGAA Reporting Station
Moderate Rain Moderate Rain  
Wind Chill: 57°   Ceiling: 1700
Heat Index: 57°   Visibility: 4mi
Dew Point: 57°   Wind: 6mph
Humidity: 100%   Direction: 200°SSW
Pressure: 29.62"   Gusts: NA
Location:  54.87°N, 6.47°W
Report Text: EGAA 311620Z 20005KT 6000 RA SCT004 SCT011 BKN017 14/14 Q1003
Loading
Personal Weather Stations






























Interactive Weather Map
Tropical Storm Tracking
New forecast layout! Learn more

10-Day Weather Forecast

Advertisements
Track Severe Weather on mobile